• Join FlightAware (Why Join?)
  • Login
  • US Flag 
09:41PM EDT


 

Airport Tracker/Info


-or-


 

Live Flight TrackerFlight Track Log ✈ CCA4494 ✈ 18-Aug-2013 ✈ ZUJZ / JZH - ZUUU / CTU

Flight Track Log - Related Links

Times and Time Zones

All times are in EDT time to prevent confusion due to time zone crossing. See the CCA4494 flight status page for this flight to view local times or setup timezone preferences in your user account.

Time Position Orientation Groundspeed Altitude Reporting Facility
EDT Latitude Longitude Course Direction KTS MPH feet Rate Location/Type
04:54AM 32.6865 103.7032 174° South  Level Estimated
04:55AM 32.6297 103.7099 174° South  Level Estimated
04:56AM 32.5729 103.7167 174° South  Level Estimated
04:57AM 32.5160 103.7234 174° South  Level Estimated
04:58AM 32.4592 103.7301 174° South  Level Estimated
04:59AM 32.4024 103.7367 174° South  Level Estimated
04:59AM 32.1140 103.6820 174° South 449 517 24,600  Level FlightAware
05:00AM 32.3455 103.7434 174° South  Level Estimated
05:00AM 32.0410 103.6830 179° South 455 524 24,600  Level FlightAware
05:01AM 31.9580 103.6820 181° South 457 526 24,600  Level FlightAware
05:01AM 31.8840 103.6820 180° South 459 528 24,600  Level FlightAware
05:02AM 31.8210 103.6820 180° South 460 529 24,600  Level FlightAware
05:02AM 31.7370 103.6830 179° South 459 528 24,600  Level FlightAware
05:03AM 31.6590 103.6830 180° South 460 529 24,600  Level FlightAware
05:04AM 31.5830 103.6830 180° South 460 529 24,600  Level FlightAware
05:04AM 31.5090 103.6830 180° South 460 529 24,600  Level FlightAware
05:05AM 31.4410 103.6840 179° South 461 531 24,600 -120 Level FlightAware
05:05AM 31.3590 103.6880 178° South 458 527 24,500 -840 Descending FlightAware
05:06AM 31.2880 103.7050 168° South 446 513 23,600 -1,860 Descending FlightAware
05:07AM 31.1930 103.7040 181° South 427 491 22,000 -2,280 Descending FlightAware
05:07AM 31.1280 103.7020 182° South 417 480 20,600 -2,580 Descending FlightAware
05:08AM 31.0580 103.6990 182° South 410 472 19,100 -1,620 Descending FlightAware
05:08AM 30.9900 103.6970 181° South 409 471 18,700 -900 Descending FlightAware
05:09AM 30.9300 103.6950 182° South 401 461 18,100 -1,800 Descending FlightAware
05:10AM 30.8600 103.6930 181° South 392 451 16,600 -2,400 Descending FlightAware
05:10AM 30.8040 103.6910 182° South 365 420 15,400 -2,580 Descending FlightAware
05:11AM 30.7390 103.6890 182° South 350 403 13,600 -2,820 Descending FlightAware
05:11AM 30.6740 103.6870 182° South 340 391 11,600 -2,580 Descending FlightAware
05:12AM 30.6220 103.6990 169° South 315 362 10,400 -1,860 Descending FlightAware
05:12AM 30.5950 103.7120 157° South 301 346 9,900 -1,500 Descending FlightAware
05:13AM 30.5690 103.7240 158° South 299 344 9,400 -1,500 Descending FlightAware
05:13AM 30.5430 103.7360 158° South 294 338 8,900 -1,440 Descending FlightAware
05:13AM 30.5200 103.7460 159° South 292 336 8,500 -1,440 Descending FlightAware
05:14AM 30.4930 103.7590 157° South 289 333 8,000 -1,320 Descending FlightAware
05:14AM 30.4700 103.7690 159° South 284 327 7,600 -1,500 Descending FlightAware
05:14AM 30.4580 103.7720 168° South 281 323 7,300 -1,680 Descending FlightAware
05:15AM 30.4280 103.7630 195° South 282 325 6,700 -1,500 Descending FlightAware
05:15AM 30.3990 103.7490 203° Southwest 278 320 6,100 -1,500 Descending FlightAware
05:15AM 30.3860 103.7430 202° Southwest 277 319 5,800 -1,500 Descending FlightAware
05:16AM 30.3550 103.7300 200° South 275 316 5,200 -780 Descending FlightAware
05:16AM 30.3230 103.7440 159° South 247 284 5,100  Descending FlightAware
05:16AM 30.3170 103.7550 122° Southeast 236 272 5,200 240 Climbing FlightAware
05:17AM 30.3120 103.7720 109° East 225 259 5,200  Level FlightAware
05:17AM 30.3070 103.7950 104° East 209 241 5,200  Level FlightAware
05:17AM 30.3160 103.8200 67° East 207 238 5,200  Level FlightAware
05:18AM 30.3280 103.8350 47° Northeast 207 238 5,200  Level FlightAware
05:18AM 30.3400 103.8490 45° Northeast 206 237 5,200 -240 Level FlightAware
05:18AM 30.3510 103.8570 32° Northeast 207 238 5,100 -660 Descending FlightAware
05:19AM 30.3710 103.8680 25° Northeast 195 224 4,800 -840 Descending FlightAware
05:19AM 30.3880 103.8760 22° Northeast 192 221 4,500 -900 Descending FlightAware
05:19AM 30.4040 103.8830 21° North 189 217 4,200 -1,140 Descending FlightAware
05:19AM 30.4150 103.8880 21° North 187 215 3,900 -840 Descending FlightAware
05:20AM 30.4320 103.8960 22° Northeast 171 197 3,700 -720 Descending FlightAware
05:20AM 30.4470 103.9030 22° Northeast 153 176 3,400 -900 Descending FlightAware
05:20AM 30.4600 103.9090 22° Northeast 148 170 3,100 -720 Descending FlightAware
05:21AM 30.4690 103.9130 21° North 146 168 3,000 -600 Descending FlightAware
05:21AM 30.4790 103.9180 23° Northeast 146 168 2,800 -720 Descending FlightAware
05:21AM 30.4890 103.9230 23° Northeast 145 167 2,600 -720 Descending FlightAware
05:22AM 30.5050 103.9300 21° North 144 166 2,300 -780 Descending FlightAware
05:22AM 30.5200 103.9370 22° Northeast 143 165 2,000 -720 Descending FlightAware
05:23AM 30.5390 103.9460 22° Northeast 130 150 -3,300 Descending FlightAware